This is the latest recevied weather packets stored in our database for station/object GW1496. If no packets are shown the sender has not sent any weather packets the latest 10 day(s).
| Time | Temp. | Humidity | Pressure | Rain* | Wind** | Luminosity | Snow |
|---|---|---|---|---|---|---|---|
| 1777722152 | 5.56° C | 79% | 1006.7 hPa | 0 mm | - | - | - |
| 1777717127 | 5.56° C | 79% | 1006.7 hPa | 0 mm | - | - | - |
| 1777716391 | 5.56° C | 79% | 1006 hPa | 0 mm | - | - | - |
| 1777705944 | 8.89° C | 57% | 1006 hPa | 0 mm | - | - | - |
| 1777701647 | 9.44° C | 54% | 1006.7 hPa | 0 mm | - | - | - |
| 1777701288 | 9.44° C | 52% | 1006.7 hPa | 0 mm | - | - | - |
| 1777699821 | 10° C | 53% | 1006 hPa | 0 mm | - | - | - |
| 1777698388 | 10.56° C | 58% | 1006 hPa | 0 mm | - | - | - |
| 1777695875 | 11.11° C | 63% | 1006 hPa | 0 mm | - | - | - |
| 1777691175 | 11.67° C | 59% | 1006 hPa | 0 mm | - | - | - |
| 1777681112 | 14.44° C | 56% | 1004 hPa | 0 mm | - | - | - |
| 1777680766 | 14.44° C | 57% | 1003 hPa | 0 mm | - | - | - |
| 1777679693 | 15° C | 53% | 1003 hPa | 0 mm | - | - | - |
| 1777678973 | 15.56° C | 51% | 1002 hPa | 0 mm | - | - | - |
| 1777674654 | 20° C | 32% | 1002 hPa | 0 mm | - | - | - |
| 1777671758 | 21.11° C | 29% | 1001 hPa | 0 mm | - | - | - |
| 1777661321 | 20.56° C | 22% | 1002 hPa | 0 mm | - | - | - |
| 1777660943 | 20.56° C | 21% | 1002 hPa | 0 mm | - | - | - |
| 1777658813 | 20.56° C | 23% | 1002 hPa | 0 mm | - | - | - |
| 1777653757 | 19.44° C | 23% | 1003 hPa | 0 mm | - | - | - |
| 1777646530 | 15° C | 49% | 1005 hPa | 0 mm | - | - | - |
| 1777645821 | 13.89° C | 47% | 1005 hPa | 0 mm | - | - | - |
| 1777645450 | 13.33° C | 50% | 1005 hPa | 0 mm | - | - | - |
| 1777643291 | 8.89° C | 70% | 1005 hPa | 0 mm | - | - | - |
| 1777639339 | 5° C | 85% | 1006 hPa | 0 mm | - | - | - |
* Rain since midnight (hover to see other rain measurements)
** Current wind speed in m/s (hover to see current wind gust speed)